createdAt,value
2023-04-18T00:01:29.931Z,58.10
2023-04-18T00:03:57.858Z,58.20
2023-04-18T00:06:27.611Z,59.26
2023-04-18T00:08:55.852Z,59.96
2023-04-18T00:11:22.832Z,60.96
2023-04-18T00:13:49.254Z,64.25
2023-04-18T00:16:17.925Z,64.66
2023-04-18T00:18:44.366Z,58.50
2023-04-18T00:21:11.830Z,56.62
2023-04-18T00:23:39.399Z,58.05
2023-04-18T00:26:06.249Z,59.78
2023-04-18T00:28:32.717Z,61.07
2023-04-18T00:30:59.560Z,64.17
2023-04-18T00:33:26.808Z,68.16
2023-04-18T00:35:53.888Z,64.24
2023-04-18T00:38:20.315Z,56.31
2023-04-18T00:40:46.791Z,54.41
2023-04-18T00:43:14.244Z,54.54
2023-04-18T00:45:40.988Z,57.27
2023-04-18T00:48:08.634Z,60.69
2023-04-18T00:50:37.720Z,60.85
2023-04-18T00:53:07.587Z,60.74
2023-04-18T00:55:37.423Z,61.14
2023-04-18T00:58:05.639Z,67.89
2023-04-18T01:00:32.197Z,71.26
2023-04-18T01:03:00.617Z,63.30
2023-04-18T01:05:28.480Z,54.39
2023-04-18T01:08:00.359Z,52.14
2023-04-18T01:10:30.788Z,53.91
2023-04-18T01:13:15.792Z,57.25
2023-04-18T01:15:47.450Z,59.77
2023-04-18T01:18:16.292Z,63.49
2023-04-18T01:20:52.460Z,65.70
2023-04-18T01:23:20.975Z,61.76
2023-04-18T01:25:51.317Z,55.02
2023-04-18T01:28:24.200Z,52.65
2023-04-18T01:30:50.720Z,53.85
2023-04-18T01:33:17.566Z,56.49
2023-04-18T01:35:44.295Z,59.07
2023-04-18T01:38:11.150Z,60.09
2023-04-18T01:40:37.619Z,65.34
2023-04-18T01:43:06.789Z,66.73
2023-04-18T01:45:33.340Z,61.03
2023-04-18T01:47:59.817Z,54.78
2023-04-18T01:50:26.403Z,53.98
2023-04-18T01:52:52.916Z,56.77
2023-04-18T01:55:20.506Z,58.64
2023-04-18T01:57:50.247Z,59.98
2023-04-18T02:00:17.622Z,63.35
2023-04-18T02:02:45.881Z,69.35
2023-04-18T02:05:16.033Z,64.62
2023-04-18T02:07:44.850Z,59.81
2023-04-18T02:10:11.348Z,52.79
2023-04-18T02:12:38.278Z,51.39
2023-04-18T02:15:06.465Z,54.78
2023-04-18T02:17:35.689Z,58.09
2023-04-18T02:20:02.217Z,58.38
2023-04-18T02:22:29.868Z,58.90
2023-04-18T02:24:56.488Z,59.87
2023-04-18T02:27:22.992Z,64.88
2023-04-18T02:29:49.866Z,69.81
2023-04-18T02:32:17.139Z,66.05
2023-04-18T02:34:47.457Z,59.99
2023-04-18T02:37:14.519Z,52.03
2023-04-18T02:39:42.044Z,51.66
2023-04-18T02:42:08.912Z,53.20
2023-04-18T02:44:37.088Z,55.10
2023-04-18T02:47:03.823Z,56.26
2023-04-18T02:49:31.868Z,58.07
2023-04-18T02:51:58.963Z,60.32
2023-04-18T02:54:25.716Z,60.85
2023-04-18T02:56:54.450Z,67.84
2023-04-18T02:59:21.081Z,70.46
2023-04-18T03:01:49.134Z,62.29
2023-04-18T03:04:16.565Z,54.27
2023-04-18T03:06:48.090Z,52.88
2023-04-18T03:09:16.698Z,54.59
2023-04-18T03:11:43.826Z,56.44
2023-04-18T03:14:11.358Z,57.19
2023-04-18T03:16:38.685Z,58.61
2023-04-18T03:19:09.307Z,60.47
2023-04-18T03:21:36.251Z,64.14
2023-04-18T03:24:03.152Z,71.08
2023-04-18T03:26:30.545Z,63.96
2023-04-18T03:28:57.549Z,55.85
2023-04-18T03:31:26.057Z,53.59
2023-04-18T03:33:52.875Z,54.93
2023-04-18T03:36:24.934Z,56.41
2023-04-18T03:38:52.307Z,56.67
2023-04-18T03:41:19.043Z,59.62
2023-04-18T03:43:45.807Z,63.62
2023-04-18T03:46:12.720Z,65.58
2023-04-18T03:48:40.024Z,63.20
2023-04-18T03:51:06.937Z,56.98
2023-04-18T03:53:33.932Z,55.55
2023-04-18T03:56:01.582Z,58.36
2023-04-18T03:58:28.482Z,60.59
2023-04-18T04:00:59.542Z,61.26
2023-04-18T04:03:27.335Z,65.73
2023-04-18T04:05:55.343Z,66.47
2023-04-18T04:08:23.315Z,63.24
2023-04-18T04:10:51.240Z,59.03
2023-04-18T04:13:21.461Z,54.31
2023-04-18T04:15:48.321Z,53.95
2023-04-18T04:18:18.027Z,56.03
2023-04-18T04:20:47.763Z,57.79
2023-04-18T04:23:15.789Z,59.64
2023-04-18T04:25:44.961Z,59.92
2023-04-18T04:28:12.756Z,64.23
2023-04-18T04:30:41.061Z,67.68
2023-04-18T04:33:08.546Z,63.44
2023-04-18T04:35:36.251Z,58.35
2023-04-18T04:38:04.218Z,54.35
2023-04-18T04:40:31.146Z,54.67
2023-04-18T04:43:01.372Z,55.93
2023-04-18T04:45:33.272Z,57.58
2023-04-18T04:48:00.372Z,59.03
2023-04-18T04:50:27.537Z,59.36
2023-04-18T04:52:54.359Z,60.53
2023-04-18T04:55:22.179Z,66.48
2023-04-18T04:57:49.150Z,70.49
2023-04-18T05:00:20.567Z,66.06
2023-04-18T05:02:55.703Z,61.78
2023-04-18T05:05:24.151Z,56.27
2023-04-18T05:07:50.957Z,53.76
2023-04-18T05:10:20.542Z,55.95
2023-04-18T05:12:48.765Z,56.71
2023-04-18T05:15:19.859Z,59.45
2023-04-18T05:17:46.745Z,59.59
2023-04-18T05:20:15.508Z,61.62
2023-04-18T05:22:42.213Z,68.65
2023-04-18T05:25:11.833Z,68.64
2023-04-18T05:27:40.146Z,64.44
2023-04-18T05:30:07.759Z,57.32
2023-04-18T05:32:35.088Z,54.10
2023-04-18T05:35:02.149Z,55.34
2023-04-18T05:37:31.076Z,58.32
2023-04-18T05:40:00.740Z,59.93
2023-04-18T05:42:29.460Z,61.94
2023-04-18T05:44:56.190Z,67.00
2023-04-18T05:47:28.191Z,68.97
2023-04-18T05:49:57.121Z,64.46
2023-04-18T05:52:25.564Z,56.28
2023-04-18T05:54:52.878Z,54.64
2023-04-18T05:57:20.257Z,57.63
2023-04-18T05:59:46.994Z,61.12
2023-04-18T06:02:14.917Z,63.33
2023-04-18T06:04:44.497Z,62.84
2023-04-18T06:07:11.633Z,57.07
2023-04-18T06:09:38.334Z,55.81
2023-04-18T06:12:06.631Z,57.39
2023-04-18T06:14:33.837Z,59.64
2023-04-18T06:17:00.782Z,60.46
2023-04-18T06:19:29.180Z,64.80
2023-04-18T06:21:58.188Z,65.74
2023-04-18T06:24:27.991Z,62.11
2023-04-18T06:26:57.783Z,55.49
2023-04-18T06:29:30.772Z,53.77
2023-04-18T06:31:58.794Z,53.89
2023-04-18T06:34:25.785Z,57.43
2023-04-18T06:36:53.768Z,60.48
2023-04-18T06:39:20.877Z,60.98
2023-04-18T06:41:50.448Z,63.76
2023-04-18T06:44:17.347Z,65.43
2023-04-18T06:46:48.792Z,63.33
2023-04-18T06:49:18.435Z,55.05
2023-04-18T06:51:45.505Z,52.47
2023-04-18T06:54:12.356Z,55.70
2023-04-18T06:56:39.318Z,57.61
2023-04-18T06:59:06.319Z,58.77
2023-04-18T07:01:33.704Z,59.59
2023-04-18T07:04:02.718Z,60.25
2023-04-18T07:06:29.566Z,60.68
2023-04-18T07:09:01.963Z,64.46
2023-04-18T07:11:30.072Z,64.95
2023-04-18T07:13:59.852Z,56.17
2023-04-18T07:16:29.061Z,54.84
2023-04-18T07:18:57.042Z,56.97
2023-04-18T07:21:26.931Z,58.30
2023-04-18T07:23:53.781Z,58.40
2023-04-18T07:26:20.832Z,60.69
2023-04-18T07:28:49.262Z,61.41
2023-04-18T07:31:18.366Z,63.33
2023-04-18T07:33:47.711Z,63.22
2023-04-18T07:36:19.490Z,58.61
2023-04-18T07:38:47.456Z,54.46
2023-04-18T07:41:19.223Z,56.42
2023-04-18T07:43:45.923Z,57.54
2023-04-18T07:46:12.939Z,58.24
2023-04-18T07:48:40.100Z,59.48
2023-04-18T07:51:10.684Z,60.16
2023-04-18T07:53:40.448Z,60.85
2023-04-18T07:56:07.182Z,60.48
2023-04-18T07:58:35.512Z,60.12
2023-04-18T08:01:07.132Z,61.68
2023-04-18T08:03:39.009Z,60.92
2023-04-18T08:06:07.396Z,61.86
2023-04-18T08:08:37.282Z,61.74
2023-04-18T08:11:04.056Z,61.59
2023-04-18T08:13:31.025Z,60.69
2023-04-18T08:15:59.220Z,60.97
2023-04-18T08:18:26.512Z,61.16
2023-04-18T08:20:53.368Z,60.17
2023-04-18T08:23:20.949Z,60.91
2023-04-18T08:25:47.917Z,60.35
2023-04-18T08:28:15.103Z,60.48
2023-04-18T08:30:43.655Z,59.85
2023-04-18T08:33:19.408Z,59.59
2023-04-18T08:35:46.840Z,59.21
2023-04-18T08:38:14.267Z,58.32
2023-04-18T08:40:43.455Z,58.62
2023-04-18T08:43:16.085Z,58.62
2023-04-18T08:45:45.612Z,57.75
2023-04-18T08:48:17.584Z,57.38
2023-04-18T08:50:50.112Z,57.96
2023-04-18T08:53:18.148Z,57.87
2023-04-18T08:55:50.135Z,57.52
2023-04-18T08:58:25.065Z,56.93
2023-04-18T09:00:56.375Z,54.56
2023-04-18T09:03:43.881Z,55.29
2023-04-18T09:06:35.827Z,56.18
2023-04-18T09:09:04.592Z,56.04
2023-04-18T09:11:33.777Z,55.24
2023-04-18T09:14:00.933Z,55.05
2023-04-18T09:16:28.628Z,54.74
2023-04-18T09:19:17.895Z,54.15
2023-04-18T09:21:48.076Z,54.14
2023-04-18T09:24:31.913Z,53.54
2023-04-18T09:27:00.778Z,52.55
2023-04-18T09:29:51.307Z,52.07
2023-04-18T09:32:24.583Z,51.70
2023-04-18T09:35:01.385Z,52.34
2023-04-18T09:37:30.119Z,51.74
2023-04-18T09:39:56.509Z,52.48
2023-04-18T09:42:25.053Z,51.28
2023-04-18T09:45:07.641Z,50.72
2023-04-18T09:47:37.099Z,51.17
2023-04-18T09:50:07.945Z,51.21
2023-04-18T09:52:37.847Z,50.95
2023-04-18T09:55:09.237Z,50.71
2023-04-18T09:57:42.581Z,50.06
2023-04-18T10:00:23.434Z,50.07
2023-04-18T10:02:58.507Z,48.85
2023-04-18T10:05:34.068Z,49.13
2023-04-18T10:08:05.506Z,48.01
2023-04-18T10:10:34.010Z,47.85
2023-04-18T10:13:06.416Z,47.51
2023-04-18T10:15:33.677Z,47.95
2023-04-18T10:18:10.822Z,47.46
2023-04-18T10:20:41.169Z,47.32
2023-04-18T10:23:35.660Z,47.33
2023-04-18T10:26:09.270Z,46.47
2023-04-18T10:28:58.980Z,45.75
2023-04-18T10:31:28.330Z,46.11
2023-04-18T10:36:30.549Z,45.03
2023-04-18T10:39:21.314Z,44.55
2023-04-18T10:41:50.986Z,44.67
2023-04-18T10:44:24.257Z,44.84
2023-04-18T10:46:56.842Z,44.19
2023-04-18T10:49:33.000Z,44.84
2023-04-18T10:52:02.598Z,44.35
2023-04-18T10:54:38.628Z,44.26
2023-04-18T10:57:08.365Z,44.09
2023-04-18T10:59:41.150Z,43.44
2023-04-18T11:02:26.606Z,43.77
2023-04-18T11:04:56.233Z,43.48
2023-04-18T11:07:39.800Z,42.97
2023-04-18T11:10:09.593Z,42.41
2023-04-18T11:12:40.948Z,42.38
2023-04-18T11:15:28.592Z,42.53
2023-04-18T11:18:03.615Z,42.24
2023-04-18T11:20:41.667Z,41.68
2023-04-18T11:23:24.710Z,41.38
2023-04-18T11:25:58.737Z,41.23
2023-04-18T11:28:26.224Z,41.47
2023-04-18T11:30:59.742Z,41.87
2023-04-18T11:33:30.048Z,41.16
2023-04-18T11:36:03.893Z,41.49
2023-04-18T11:38:31.792Z,40.41
2023-04-18T11:40:58.767Z,39.08
2023-04-18T11:43:25.760Z,38.97
2023-04-18T11:45:58.520Z,38.68
2023-04-18T11:48:44.522Z,37.80
2023-04-18T11:51:31.670Z,38.34
2023-04-18T11:53:58.730Z,36.51
2023-04-18T11:56:25.468Z,36.57
2023-04-18T11:58:53.917Z,36.62
2023-04-18T12:01:24.764Z,36.33
2023-04-18T12:04:06.690Z,36.30
2023-04-18T12:06:53.285Z,35.61
2023-04-18T12:09:25.658Z,36.12
2023-04-18T12:12:03.342Z,35.50
2023-04-18T12:14:39.177Z,35.56
2023-04-18T12:17:06.110Z,35.44
2023-04-18T12:19:33.648Z,34.47
2023-04-18T12:22:06.850Z,33.26
2023-04-18T12:24:37.315Z,33.73
2023-04-18T12:27:04.531Z,35.04
2023-04-18T12:29:35.159Z,35.00
2023-04-18T12:32:02.137Z,33.37
2023-04-18T12:34:30.193Z,34.40
2023-04-18T12:36:58.351Z,34.35
2023-04-18T12:39:25.992Z,34.66
2023-04-18T12:41:54.054Z,34.43
2023-04-18T12:44:24.087Z,34.11
2023-04-18T12:46:50.689Z,34.01
2023-04-18T12:49:17.221Z,32.92
2023-04-18T12:51:44.028Z,32.09
2023-04-18T12:54:10.770Z,30.98
2023-04-18T12:56:37.400Z,30.87
2023-04-18T12:59:05.121Z,31.28
2023-04-18T13:01:33.439Z,31.19
2023-04-18T13:04:11.481Z,31.61
2023-04-18T13:06:39.825Z,32.27
2023-04-18T13:09:09.713Z,32.79
2023-04-18T13:11:36.422Z,31.40
2023-04-18T13:14:03.682Z,30.76
2023-04-18T13:16:30.978Z,29.88
2023-04-18T13:18:57.859Z,30.61
2023-04-18T13:21:26.282Z,30.83
2023-04-18T13:23:55.155Z,31.22
2023-04-18T13:26:22.627Z,31.91
2023-04-18T13:28:50.962Z,31.66
2023-04-18T13:31:17.740Z,31.37
2023-04-18T13:33:45.823Z,31.36
2023-04-18T13:36:14.903Z,31.03
2023-04-18T13:38:41.953Z,31.46
2023-04-18T13:41:12.905Z,31.11
2023-04-18T13:43:40.330Z,31.25
2023-04-18T13:46:08.281Z,30.71
2023-04-18T13:48:34.832Z,30.37
2023-04-18T13:51:02.631Z,29.38
2023-04-18T13:53:32.171Z,29.72
2023-04-18T13:56:01.057Z,29.81
2023-04-18T13:58:27.639Z,30.19
2023-04-18T14:00:55.470Z,29.73
2023-04-18T14:03:22.407Z,29.43
2023-04-18T14:05:50.983Z,29.52
2023-04-18T14:08:17.432Z,29.25
2023-04-18T14:10:44.492Z,30.20
2023-04-18T14:13:15.048Z,30.43
2023-04-18T14:15:41.493Z,29.83
2023-04-18T14:18:08.092Z,29.18
2023-04-18T14:20:36.052Z,29.09
2023-04-18T14:23:04.565Z,29.85
2023-04-18T14:25:31.225Z,30.51
2023-04-18T14:28:10.187Z,30.73
2023-04-18T14:30:40.187Z,29.80
2023-04-18T14:33:09.047Z,30.24
2023-04-18T14:35:35.953Z,30.40
2023-04-18T14:38:08.451Z,30.37
2023-04-18T14:40:35.769Z,30.61
2023-04-18T14:43:03.042Z,30.38
2023-04-18T14:45:34.016Z,30.48
2023-04-18T14:48:01.376Z,30.56
2023-04-18T14:50:31.065Z,29.46
2023-04-18T14:52:59.226Z,29.37
2023-04-18T14:55:26.818Z,29.37
2023-04-18T14:57:56.819Z,29.32
2023-04-18T15:00:23.541Z,29.41
2023-04-18T15:02:51.993Z,29.27
2023-04-18T15:05:23.800Z,28.01
2023-04-18T15:07:51.908Z,28.06
2023-04-18T15:10:21.800Z,28.24
2023-04-18T15:12:48.784Z,28.41
2023-04-18T15:15:21.244Z,28.12
2023-04-18T15:17:47.749Z,28.73
2023-04-18T15:20:15.157Z,29.13
2023-04-18T15:22:41.595Z,28.91
2023-04-18T15:25:08.674Z,28.48
2023-04-18T15:27:36.745Z,28.53
2023-04-18T15:30:12.239Z,28.43
2023-04-18T15:32:41.505Z,28.44
2023-04-18T15:35:11.217Z,28.61
2023-04-18T15:37:37.868Z,28.65
2023-04-18T15:40:08.913Z,28.27
2023-04-18T15:42:36.548Z,27.73
2023-04-18T15:45:04.349Z,27.89
2023-04-18T15:47:55.978Z,28.27
2023-04-18T15:50:23.932Z,28.42
2023-04-18T15:52:50.524Z,28.23
2023-04-18T15:55:18.244Z,28.30
2023-04-18T15:57:46.187Z,27.92
2023-04-18T16:00:15.578Z,27.85
2023-04-18T16:02:46.755Z,27.13
2023-04-18T16:05:14.498Z,27.09
2023-04-18T16:07:44.170Z,26.62
2023-04-18T16:10:13.286Z,26.50
2023-04-18T16:12:41.051Z,26.74
2023-04-18T16:15:10.228Z,26.67
2023-04-18T16:17:37.906Z,26.67
2023-04-18T16:20:07.499Z,25.68
2023-04-18T16:22:35.062Z,25.50
2023-04-18T16:25:03.781Z,25.46
2023-04-18T16:27:32.363Z,26.14
2023-04-18T16:30:01.079Z,26.39
2023-04-18T16:32:29.756Z,25.94
2023-04-18T16:34:57.734Z,25.50
2023-04-18T16:37:25.916Z,24.88
2023-04-18T16:39:52.609Z,25.23
2023-04-18T16:42:19.188Z,25.32
2023-04-18T16:44:47.616Z,25.58
2023-04-18T16:47:14.380Z,25.94
2023-04-18T16:49:44.448Z,25.45
2023-04-18T16:52:14.821Z,25.63
2023-04-18T16:54:41.815Z,26.03
2023-04-18T16:57:08.304Z,25.63
2023-04-18T16:59:36.812Z,25.39
2023-04-18T17:02:05.109Z,25.47
2023-04-18T17:04:33.762Z,25.81
2023-04-18T17:07:03.794Z,26.07
2023-04-18T17:09:33.720Z,26.08
2023-04-18T17:12:01.273Z,26.17
2023-04-18T17:14:28.364Z,26.22
2023-04-18T17:16:55.182Z,26.43
2023-04-18T17:19:23.463Z,26.54
2023-04-18T17:21:51.537Z,26.38
2023-04-18T17:24:22.182Z,26.68
2023-04-18T17:26:49.054Z,26.81
2023-04-18T17:29:16.216Z,26.49
2023-04-18T17:31:46.398Z,26.51
2023-04-18T17:34:15.069Z,26.76
2023-04-18T17:36:44.973Z,27.07
2023-04-18T17:39:22.417Z,27.30
2023-04-18T17:41:50.377Z,27.31
2023-04-18T17:44:16.782Z,27.91
2023-04-18T17:46:45.089Z,28.19
2023-04-18T17:49:20.066Z,28.42
2023-04-18T17:51:47.634Z,28.43
2023-04-18T17:54:15.778Z,28.40
2023-04-18T17:56:44.860Z,28.64
2023-04-18T17:59:11.630Z,28.89
2023-04-18T18:01:39.446Z,29.34
2023-04-18T18:04:08.932Z,29.35
2023-04-18T18:06:35.571Z,29.63
2023-04-18T18:09:02.797Z,30.15
2023-04-18T18:11:29.871Z,30.09
2023-04-18T18:13:56.875Z,30.45
2023-04-18T18:16:26.143Z,30.94
2023-04-18T18:18:54.082Z,32.31
2023-04-18T18:21:21.639Z,33.17
2023-04-18T18:23:48.113Z,34.45
2023-04-18T18:26:14.692Z,35.35
2023-04-18T18:28:41.228Z,35.93
2023-04-18T18:31:08.654Z,37.58
2023-04-18T18:33:36.699Z,38.18
2023-04-18T18:36:06.711Z,37.72
2023-04-18T18:38:34.240Z,39.18
2023-04-18T18:41:03.628Z,39.05
2023-04-18T18:43:32.712Z,39.34
2023-04-18T18:46:01.011Z,39.64
2023-04-18T18:48:28.687Z,40.77
2023-04-18T18:50:56.654Z,41.37
2023-04-18T18:53:23.091Z,42.09
2023-04-18T18:55:51.657Z,41.39
2023-04-18T18:58:18.300Z,41.39
2023-04-18T19:00:48.489Z,40.69
2023-04-18T19:03:18.352Z,41.82
2023-04-18T19:05:46.875Z,41.23
2023-04-18T19:08:14.828Z,41.65
2023-04-18T19:10:42.769Z,42.18
2023-04-18T19:13:09.867Z,42.38
2023-04-18T19:15:47.799Z,42.55
2023-04-18T19:18:18.257Z,43.60
2023-04-18T19:20:52.490Z,44.41
2023-04-18T19:23:19.309Z,44.24
2023-04-18T19:25:46.828Z,44.51
2023-04-18T19:28:18.384Z,44.88
2023-04-18T19:30:47.036Z,45.65
2023-04-18T19:33:13.910Z,46.38
2023-04-18T19:35:41.011Z,47.77
2023-04-18T19:38:08.802Z,48.13
2023-04-18T19:40:38.448Z,47.73
2023-04-18T19:43:05.543Z,48.06
2023-04-18T19:45:34.418Z,48.52
2023-04-18T19:48:03.367Z,48.77
2023-04-18T19:50:32.233Z,48.83
2023-04-18T19:53:00.471Z,49.12
2023-04-18T19:55:28.755Z,49.77
2023-04-18T19:57:59.625Z,50.56
2023-04-18T20:00:27.120Z,49.57
2023-04-18T20:02:54.968Z,49.22
2023-04-18T20:05:21.937Z,49.86
2023-04-18T20:07:50.368Z,49.23
2023-04-18T20:10:21.892Z,49.31
2023-04-18T20:12:50.038Z,49.09
2023-04-18T20:15:18.044Z,49.56
2023-04-18T20:17:47.768Z,49.35
2023-04-18T20:20:14.960Z,49.23
2023-04-18T20:22:44.081Z,48.72
2023-04-18T20:25:10.753Z,49.58
2023-04-18T20:27:37.308Z,49.42
2023-04-18T20:30:08.043Z,49.11
2023-04-18T20:32:35.236Z,49.45
2023-04-18T20:35:04.317Z,50.29
2023-04-18T20:37:40.631Z,49.75
2023-04-18T20:40:09.390Z,49.79
2023-04-18T20:42:38.138Z,49.90
2023-04-18T20:45:10.261Z,48.86
2023-04-18T20:47:36.978Z,48.07
2023-04-18T20:50:03.941Z,47.64
2023-04-18T20:52:30.476Z,47.70
2023-04-18T20:54:56.997Z,47.81
2023-04-18T20:57:23.593Z,47.85
2023-04-18T20:59:50.134Z,48.04
2023-04-18T21:02:18.604Z,49.62
2023-04-18T21:04:46.361Z,49.75
2023-04-18T21:07:13.793Z,50.46
2023-04-18T21:09:40.978Z,50.48
2023-04-18T21:12:07.495Z,50.62
2023-04-18T21:14:33.939Z,50.83
2023-04-18T21:17:01.176Z,50.78
2023-04-18T21:19:28.060Z,50.64
2023-04-18T21:21:54.473Z,50.54
2023-04-18T21:24:24.657Z,50.50
2023-04-18T21:26:52.532Z,50.98
2023-04-18T21:29:21.041Z,50.89
2023-04-18T21:31:49.685Z,50.76
2023-04-18T21:34:16.745Z,51.25
2023-04-18T21:36:43.545Z,51.08
2023-04-18T21:39:11.938Z,50.65
2023-04-18T21:41:38.578Z,51.09
2023-04-18T21:44:06.062Z,51.38
2023-04-18T21:46:32.908Z,50.85
2023-04-18T21:49:03.557Z,51.36
2023-04-18T21:51:31.875Z,51.58
2023-04-18T21:53:59.864Z,51.71
2023-04-18T21:56:27.006Z,51.83
2023-04-18T21:58:53.521Z,52.08
2023-04-18T22:01:20.131Z,52.11
2023-04-18T22:03:48.918Z,51.96
2023-04-18T22:06:15.665Z,52.75
2023-04-18T22:08:42.803Z,52.53
2023-04-18T22:11:11.285Z,52.45
2023-04-18T22:13:39.332Z,52.55
2023-04-18T22:16:07.585Z,52.77
2023-04-18T22:18:37.618Z,53.16
2023-04-18T22:21:06.105Z,53.04
2023-04-18T22:23:32.643Z,53.35
2023-04-18T22:26:02.721Z,53.95
2023-04-18T22:28:32.736Z,54.55
2023-04-18T22:31:02.506Z,54.01
2023-04-18T22:33:31.603Z,53.66
2023-04-18T22:35:58.472Z,54.45
2023-04-18T22:38:25.195Z,54.39
2023-04-18T22:40:53.340Z,54.15
2023-04-18T22:43:23.336Z,54.33
2023-04-18T22:45:51.627Z,54.71
2023-04-18T22:48:19.418Z,55.53
2023-04-18T22:50:46.925Z,55.82
2023-04-18T22:53:15.791Z,55.89
2023-04-18T22:55:45.748Z,56.07
2023-04-18T22:58:13.912Z,56.07
2023-04-18T23:00:44.870Z,56.28
2023-04-18T23:03:11.985Z,56.57
2023-04-18T23:05:40.752Z,56.68
2023-04-18T23:08:07.381Z,56.60
2023-04-18T23:10:34.121Z,56.90
2023-04-18T23:13:02.003Z,56.92
2023-04-18T23:15:29.853Z,57.06
2023-04-18T23:17:56.344Z,57.28
2023-04-18T23:20:25.945Z,57.09
2023-04-18T23:22:53.262Z,57.09
2023-04-18T23:25:19.985Z,57.74
2023-04-18T23:27:47.184Z,57.90
2023-04-18T23:30:16.860Z,57.91
2023-04-18T23:32:43.419Z,57.52
2023-04-18T23:35:10.988Z,57.85
2023-04-18T23:37:37.746Z,58.39
2023-04-18T23:40:09.487Z,57.89
2023-04-18T23:42:37.205Z,57.79
2023-04-18T23:45:05.200Z,58.21
2023-04-18T23:47:32.583Z,58.42
2023-04-18T23:49:59.352Z,58.76
2023-04-18T23:52:25.818Z,58.41
2023-04-18T23:54:52.998Z,58.36
2023-04-18T23:57:19.974Z,59.46
2023-04-18T23:59:46.800Z,59.13
